createdAt,value
2016-04-15T00:00:27.551Z,0
2016-04-15T00:01:27.522Z,0
2016-04-15T00:02:27.509Z,0
2016-04-15T00:03:27.465Z,0
2016-04-15T00:04:27.452Z,0
2016-04-15T00:05:27.423Z,0
2016-04-15T00:06:27.410Z,0
2016-04-15T00:07:27.226Z,0
2016-04-15T00:08:27.353Z,0
2016-04-15T00:09:27.340Z,0
2016-04-15T00:10:27.296Z,0
2016-04-15T00:11:27.284Z,0
2016-04-15T00:12:27.256Z,0
2016-04-15T00:13:27.226Z,0
2016-04-15T00:14:27.401Z,0
2016-04-15T00:15:27.184Z,0
2016-04-15T00:16:27.172Z,0
2016-04-15T00:17:27.144Z,0
2016-04-15T00:18:27.130Z,0
2016-04-15T00:19:27.086Z,0
2016-04-15T00:20:27.088Z,0
2016-04-15T00:21:27.044Z,0
2016-04-15T00:22:27.016Z,0
2016-04-15T00:23:27.002Z,0
2016-04-15T00:24:26.990Z,0
2016-04-15T00:25:26.977Z,0
2016-04-15T00:26:26.793Z,0
2016-04-15T00:27:26.921Z,0
2016-04-15T00:28:26.876Z,0
2016-04-15T00:29:26.879Z,0
2016-04-15T00:30:26.881Z,0
2016-04-15T00:31:26.509Z,0
2016-04-15T00:32:26.669Z,0
2016-04-15T00:33:26.766Z,0
2016-04-15T00:34:26.752Z,0
2016-04-15T00:35:26.716Z,0
2016-04-15T00:36:26.687Z,0
2016-04-15T00:37:26.674Z,0
2016-04-15T00:38:26.504Z,0
2016-04-15T00:39:26.617Z,0
2016-04-15T00:40:26.604Z,0
2016-04-15T00:41:26.575Z,0
2016-04-15T00:42:26.562Z,0
2016-04-15T00:43:26.548Z,0
2016-04-15T00:44:26.505Z,0
2016-04-15T00:45:26.523Z,0
2016-04-15T00:46:26.464Z,0
2016-04-15T00:47:26.295Z,0
2016-04-15T00:48:26.407Z,0
2016-04-15T00:49:26.394Z,0
2016-04-15T00:50:26.365Z,0
2016-04-15T00:51:26.353Z,0
2016-04-15T00:52:26.323Z,0
2016-04-15T00:53:26.155Z,0
2016-04-15T00:54:26.282Z,0
2016-04-15T00:55:26.253Z,0
2016-04-15T00:56:26.240Z,0
2016-04-15T00:57:26.196Z,0
2016-04-15T00:58:26.183Z,0
2016-04-15T00:59:26.154Z,0
2016-04-15T01:00:26.126Z,0
2016-04-15T01:01:26.097Z,0
2016-04-15T01:02:26.085Z,0
2016-04-15T01:03:26.072Z,0
2016-04-15T01:04:26.043Z,0
2016-04-15T01:05:26.030Z,0
2016-04-15T01:06:25.985Z,0
2016-04-15T01:07:25.973Z,0
2016-04-15T01:08:25.945Z,0
2016-04-15T01:09:25.916Z,0
2016-04-15T01:10:25.903Z,0
2016-04-15T01:11:25.874Z,0
2016-04-15T01:12:25.845Z,0
2016-04-15T01:13:25.817Z,0
2016-04-15T01:14:25.789Z,0
2016-04-15T01:15:25.791Z,0
2016-04-15T01:16:25.748Z,0
2016-04-15T01:17:25.750Z,0
2016-04-15T01:18:25.706Z,0
2016-04-15T01:19:25.678Z,0
2016-04-15T01:20:25.648Z,0
2016-04-15T01:21:25.636Z,0
2016-04-15T01:22:25.622Z,0
2016-04-15T01:23:25.578Z,0
2016-04-15T01:24:25.566Z,0
2016-04-15T01:25:25.536Z,0
2016-04-15T01:26:25.509Z,0
2016-04-15T01:27:25.511Z,0
2016-04-15T01:28:25.467Z,0
2016-04-15T01:29:25.455Z,0
2016-04-15T01:30:25.425Z,0
2016-04-15T01:31:25.397Z,0
2016-04-15T01:32:25.368Z,0
2016-04-15T01:33:25.340Z,0
2016-04-15T01:34:25.327Z,0
2016-04-15T01:35:25.299Z,0
2016-04-15T01:36:25.301Z,0
2016-04-15T01:37:25.257Z,0
2016-04-15T01:38:25.243Z,0
2016-04-15T01:39:25.215Z,0
2016-04-15T01:40:25.171Z,0
2016-04-15T01:41:25.173Z,0
2016-04-15T01:42:25.130Z,0
2016-04-15T01:43:25.117Z,0
2016-04-15T01:44:25.088Z,0
2016-04-15T01:45:25.091Z,0
2016-04-15T01:46:25.062Z,0
2016-04-15T01:47:25.018Z,0
2016-04-15T01:48:25.005Z,0
2016-04-15T01:49:24.992Z,0
2016-04-15T01:50:24.948Z,0
2016-04-15T01:51:24.935Z,0
2016-04-15T01:52:24.906Z,0
2016-04-15T01:53:24.908Z,0
2016-04-15T01:54:24.864Z,0
2016-04-15T01:55:24.727Z,0
2016-04-15T01:56:24.807Z,0
2016-04-15T01:57:24.780Z,0
2016-04-15T01:58:24.766Z,0
2016-04-15T01:59:24.738Z,0
2016-04-15T02:00:24.710Z,0
2016-04-15T02:01:24.681Z,0
2016-04-15T02:02:24.699Z,0
2016-04-15T02:03:24.655Z,0
2016-04-15T02:04:24.610Z,0
2016-04-15T02:05:24.613Z,0
2016-04-15T02:06:24.569Z,0
2016-04-15T02:07:24.541Z,0
2016-04-15T02:08:24.544Z,0
2016-04-15T02:09:24.515Z,0
2016-04-15T02:10:24.471Z,0
2016-04-15T02:11:24.458Z,0
2016-04-15T02:12:24.429Z,0
2016-04-15T02:13:24.416Z,0
2016-04-15T02:14:24.387Z,0
2016-04-15T02:15:24.343Z,0
2016-04-15T02:16:24.331Z,0
2016-04-15T02:17:24.317Z,0
2016-04-15T02:18:24.289Z,0
2016-04-15T02:19:24.260Z,0
2016-04-15T02:20:24.247Z,0
2016-04-15T02:21:24.219Z,0
2016-04-15T02:22:24.330Z,0
2016-04-15T02:23:24.193Z,0
2016-04-15T02:24:24.149Z,0
2016-04-15T02:25:24.105Z,0
2016-04-15T02:26:24.092Z,0
2016-04-15T02:27:24.078Z,0
2016-04-15T02:28:24.050Z,0
2016-04-15T02:29:24.038Z,0
2016-04-15T02:30:24.008Z,0
2016-04-15T02:31:23.980Z,0
2016-04-15T02:32:23.952Z,0
2016-04-15T02:33:23.938Z,0
2016-04-15T02:34:23.910Z,0
2016-04-15T02:35:23.881Z,0
2016-04-15T02:36:23.868Z,0
2016-04-15T02:37:23.840Z,0
2016-04-15T02:38:23.827Z,0
2016-04-15T02:39:23.783Z,0
2016-04-15T02:40:23.770Z,0
2016-04-15T02:41:23.741Z,0
2016-04-15T02:42:23.713Z,0
2016-04-15T02:43:23.700Z,0
2016-04-15T02:44:23.671Z,0
2016-04-15T02:45:23.658Z,0
2016-04-15T02:46:23.629Z,0
2016-04-15T02:47:23.601Z,0
2016-04-15T02:48:23.573Z,0
2016-04-15T02:49:23.545Z,0
2016-04-15T02:50:23.548Z,0
2016-04-15T02:51:23.503Z,0
2016-04-15T02:52:23.475Z,0
2016-04-15T02:53:23.478Z,0
2016-04-15T02:54:23.448Z,0
2016-04-15T02:55:23.420Z,0
2016-04-15T02:56:23.391Z,0
2016-04-15T02:57:23.363Z,0
2016-04-15T02:58:23.334Z,0
2016-04-15T02:59:23.336Z,0
2016-04-15T03:00:23.324Z,0
2016-04-15T03:01:23.280Z,0
2016-04-15T03:02:23.252Z,0
2016-04-15T03:03:23.238Z,0
2016-04-15T03:04:23.194Z,0
2016-04-15T03:05:23.166Z,0
2016-04-15T03:06:23.183Z,0
2016-04-15T03:07:23.140Z,0
2016-04-15T03:08:23.096Z,0
2016-04-15T03:09:23.082Z,0
2016-04-15T03:10:23.069Z,0
2016-04-15T03:11:23.040Z,0
2016-04-15T03:12:23.028Z,0
2016-04-15T03:13:23.015Z,0
2016-04-15T03:14:22.970Z,0
2016-04-15T03:15:22.926Z,0
2016-04-15T03:16:22.914Z,0
2016-04-15T03:17:22.900Z,0
2016-04-15T03:18:22.872Z,0
2016-04-15T03:19:22.859Z,0
2016-04-15T03:20:22.815Z,0
2016-04-15T03:21:22.803Z,0
2016-04-15T03:22:22.758Z,0
2016-04-15T03:23:22.745Z,0
2016-04-15T03:24:22.732Z,0
2016-04-15T03:25:22.688Z,0
2016-04-15T03:26:22.691Z,0
2016-04-15T03:27:22.646Z,0
2016-04-15T03:28:22.617Z,0
2016-04-15T03:29:22.605Z,0
2016-04-15T03:30:22.436Z,0
2016-04-15T03:31:22.548Z,0
2016-04-15T03:32:22.550Z,0
2016-04-15T03:33:22.538Z,0
2016-04-15T03:34:22.509Z,0
2016-04-15T03:35:22.449Z,0
2016-04-15T03:36:22.436Z,0
2016-04-15T03:37:22.423Z,0
2016-04-15T03:38:22.394Z,0
2016-04-15T03:39:22.351Z,0
2016-04-15T03:40:22.338Z,0
2016-04-15T03:41:22.309Z,0
2016-04-15T03:42:22.296Z,0
2016-04-15T03:43:22.283Z,0
2016-04-15T03:44:22.254Z,0
2016-04-15T03:45:22.148Z,0
2016-04-15T03:46:22.198Z,0
2016-04-15T03:47:22.185Z,0
2016-04-15T03:48:22.140Z,0
2016-04-15T03:49:22.112Z,0
2016-04-15T03:50:22.098Z,0
2016-04-15T03:51:22.086Z,0
2016-04-15T03:52:22.057Z,0
2016-04-15T03:53:22.028Z,0
2016-04-15T03:54:22.000Z,0
2016-04-15T03:55:21.972Z,0
2016-04-15T03:56:21.958Z,0
2016-04-15T03:57:21.945Z,0
2016-04-15T03:58:21.916Z,0
2016-04-15T03:59:21.888Z,0
2016-04-15T04:00:21.891Z,0
2016-04-15T04:01:21.831Z,0
2016-04-15T04:02:21.819Z,0
2016-04-15T04:03:21.805Z,0
2016-04-15T04:04:21.777Z,0
2016-04-15T04:05:21.733Z,0
2016-04-15T04:06:21.735Z,0
2016-04-15T04:07:21.691Z,0
2016-04-15T04:08:21.663Z,0
2016-04-15T04:09:21.634Z,0
2016-04-15T04:10:21.637Z,0
2016-04-15T04:11:21.593Z,0
2016-04-15T04:12:21.580Z,0
2016-04-15T04:13:21.551Z,0
2016-04-15T04:14:21.538Z,0
2016-04-15T04:15:21.526Z,0
2016-04-15T04:16:21.496Z,0
2016-04-15T04:17:21.437Z,0
2016-04-15T04:18:21.440Z,0
2016-04-15T04:19:21.395Z,0
2016-04-15T04:20:21.382Z,0
2016-04-15T04:21:21.370Z,0
2016-04-15T04:22:21.184Z,0
2016-04-15T04:23:21.312Z,0
2016-04-15T04:24:21.142Z,0
2016-04-15T04:25:21.270Z,0
2016-04-15T04:26:21.227Z,0
2016-04-15T04:27:21.230Z,0
2016-04-15T04:28:21.201Z,0
2016-04-15T04:29:21.173Z,0
2016-04-15T04:30:21.144Z,0
2016-04-15T04:31:21.131Z,0
2016-04-15T04:32:21.119Z,0
2016-04-15T04:33:21.074Z,0
2016-04-15T04:34:21.061Z,0
2016-04-15T04:35:21.032Z,0
2016-04-15T04:36:21.004Z,0
2016-04-15T04:37:20.975Z,0
2016-04-15T04:38:20.962Z,0
2016-04-15T04:39:20.933Z,0
2016-04-15T04:40:20.904Z,0
2016-04-15T04:41:20.892Z,0
2016-04-15T04:42:20.863Z,0
2016-04-15T04:43:20.835Z,0
2016-04-15T04:44:20.838Z,0
2016-04-15T04:45:20.793Z,0
2016-04-15T04:46:20.765Z,0
2016-04-15T04:47:20.737Z,0
2016-04-15T04:48:20.723Z,5
2016-04-15T04:49:20.695Z,5
2016-04-15T04:50:20.697Z,5
2016-04-15T04:51:20.731Z,5
2016-04-15T04:52:20.579Z,5
2016-04-15T04:53:20.563Z,5
2016-04-15T04:54:21.065Z,5
2016-04-15T04:55:20.761Z,5
2016-04-15T04:56:20.529Z,5
2016-04-15T04:57:20.484Z,5
2016-04-15T04:58:20.503Z,5
2016-04-15T04:59:20.459Z,5
2016-04-15T05:00:20.431Z,5
2016-04-15T05:01:20.277Z,5
2016-04-15T05:02:20.389Z,5
2016-04-15T05:03:20.376Z,5
2016-04-15T05:04:20.347Z,5
2016-04-15T05:05:20.319Z,5
2016-04-15T05:06:20.290Z,5
2016-04-15T05:07:20.261Z,5
2016-04-15T05:08:20.249Z,5
2016-04-15T05:09:20.235Z,5
2016-04-15T05:10:20.239Z,5
2016-04-15T05:11:20.194Z,5
2016-04-15T05:12:20.150Z,5
2016-04-15T05:13:20.138Z,5
2016-04-15T05:14:20.109Z,10
2016-04-15T05:15:20.080Z,10
2016-04-15T05:16:20.068Z,10
2016-04-15T05:17:20.038Z,10
2016-04-15T05:18:20.010Z,10
2016-04-15T05:19:19.997Z,10
2016-04-15T05:20:19.968Z,10
2016-04-15T05:21:19.940Z,10
2016-04-15T05:22:19.926Z,10
2016-04-15T05:23:19.898Z,10
2016-04-15T05:24:19.870Z,15
2016-04-15T05:25:19.856Z,15
2016-04-15T05:26:19.828Z,15
2016-04-15T05:27:19.815Z,15
2016-04-15T05:28:19.787Z,15
2016-04-15T05:29:19.759Z,15
2016-04-15T05:30:19.745Z,15
2016-04-15T05:31:19.717Z,15
2016-04-15T05:32:19.688Z,15
2016-04-15T05:33:19.660Z,15
2016-04-15T05:34:19.647Z,15
2016-04-15T05:35:19.633Z,15
2016-04-15T05:36:19.606Z,15
2016-04-15T05:37:19.577Z,10
2016-04-15T05:38:19.533Z,10
2016-04-15T05:39:19.520Z,10
2016-04-15T05:40:19.507Z,10
2016-04-15T05:41:19.478Z,10
2016-04-15T05:42:19.449Z,10
2016-04-15T05:43:19.437Z,10
2016-04-15T05:44:19.424Z,15
2016-04-15T05:45:19.379Z,15
2016-04-15T05:46:19.366Z,15
2016-04-15T05:47:19.338Z,15
2016-04-15T05:48:19.293Z,15
2016-04-15T05:49:19.296Z,15
2016-04-15T05:50:19.284Z,15
2016-04-15T05:51:19.239Z,15
2016-04-15T05:52:19.212Z,15
2016-04-15T05:53:19.198Z,15
2016-04-15T05:54:19.185Z,15
2016-04-15T05:55:19.766Z,10
2016-04-15T05:56:19.128Z,10
2016-04-15T05:57:19.100Z,15
2016-04-15T05:58:19.070Z,10
2016-04-15T05:59:19.058Z,10
2016-04-15T06:00:19.014Z,10
2016-04-15T06:01:19.000Z,10
2016-04-15T06:02:18.988Z,10
2016-04-15T06:03:18.974Z,10
2016-04-15T06:04:18.946Z,10
2016-04-15T06:05:18.917Z,10
2016-04-15T06:06:18.888Z,15
2016-04-15T06:07:18.938Z,15
2016-04-15T06:08:18.847Z,15
2016-04-15T06:09:18.835Z,15
2016-04-15T06:10:18.791Z,15
2016-04-15T06:11:18.778Z,15
2016-04-15T06:12:18.765Z,15
2016-04-15T06:13:18.721Z,10
2016-04-15T06:14:18.707Z,10
2016-04-15T06:15:18.663Z,15
2016-04-15T06:16:18.651Z,15
2016-04-15T06:17:18.637Z,15
2016-04-15T06:18:18.609Z,15
2016-04-15T06:19:18.596Z,15
2016-04-15T06:20:18.552Z,20
2016-04-15T06:21:18.419Z,20
2016-04-15T06:22:18.705Z,20
2016-04-15T06:23:18.489Z,20
2016-04-15T06:24:18.461Z,20
2016-04-15T06:25:18.447Z,20
2016-04-15T06:26:18.419Z,20
2016-04-15T06:27:18.389Z,25
2016-04-15T06:28:18.210Z,25
2016-04-15T06:29:18.337Z,20
2016-04-15T06:30:18.340Z,15
2016-04-15T06:31:18.312Z,15
2016-04-15T06:32:18.283Z,15
2016-04-15T06:33:18.239Z,15
2016-04-15T06:34:18.227Z,15
2016-04-15T06:35:18.213Z,20
2016-04-15T06:36:18.169Z,20
2016-04-15T06:37:18.157Z,20
2016-04-15T06:38:18.143Z,20
2016-04-15T06:39:18.099Z,20
2016-04-15T06:40:18.101Z,20
2016-04-15T06:41:18.089Z,20
2016-04-15T06:42:18.045Z,20
2016-04-15T06:43:18.015Z,15
2016-04-15T06:44:17.987Z,15
2016-04-15T06:45:17.958Z,15
2016-04-15T06:46:17.961Z,15
2016-04-15T06:47:17.933Z,15
2016-04-15T06:48:17.903Z,15
2016-04-15T06:49:17.876Z,15
2016-04-15T06:50:17.847Z,15
2016-04-15T06:51:17.850Z,10
2016-04-15T06:52:17.822Z,10
2016-04-15T06:53:17.792Z,10
2016-04-15T06:54:17.749Z,15
2016-04-15T06:55:17.751Z,15
2016-04-15T06:56:17.722Z,20
2016-04-15T06:57:17.694Z,15
2016-04-15T06:58:17.510Z,20
2016-04-15T06:59:17.638Z,15
2016-04-15T07:00:17.625Z,15
2016-04-15T07:01:17.658Z,15
2016-04-15T07:02:17.567Z,20
2016-04-15T07:03:17.554Z,20
2016-04-15T07:04:17.526Z,25
2016-04-15T07:05:17.497Z,30
2016-04-15T07:06:17.484Z,30
2016-04-15T07:07:17.455Z,30
2016-04-15T07:08:17.458Z,25
2016-04-15T07:09:17.414Z,20
2016-04-15T07:10:17.401Z,20
2016-04-15T07:11:17.387Z,25
2016-04-15T07:12:17.343Z,35
2016-04-15T07:13:17.315Z,35
2016-04-15T07:14:17.287Z,50
2016-04-15T07:15:17.259Z,60
2016-04-15T07:16:17.292Z,45
2016-04-15T07:17:17.217Z,50
2016-04-15T07:18:17.204Z,50
2016-04-15T07:19:17.160Z,50
2016-04-15T07:20:17.162Z,55
2016-04-15T07:21:17.122Z,75
2016-04-15T07:22:17.094Z,100
2016-04-15T07:23:17.066Z,85
2016-04-15T07:24:17.068Z,70
2016-04-15T07:25:17.040Z,65
2016-04-15T07:26:17.010Z,85
2016-04-15T07:27:16.982Z,85
2016-04-15T07:28:16.975Z,75
2016-04-15T07:29:16.931Z,75
2016-04-15T07:30:16.918Z,70
2016-04-15T07:31:17.218Z,70
2016-04-15T07:32:16.876Z,65
2016-04-15T07:33:16.848Z,55
2016-04-15T07:34:16.834Z,55
2016-04-15T07:35:16.822Z,55
2016-04-15T07:36:16.793Z,55
2016-04-15T07:37:16.764Z,60
2016-04-15T07:38:16.736Z,70
2016-04-15T07:39:16.708Z,90
2016-04-15T07:40:16.694Z,90
2016-04-15T07:41:16.682Z,90
2016-04-15T07:42:16.653Z,95
2016-04-15T07:43:16.609Z,90
2016-04-15T07:44:16.597Z,75
2016-04-15T07:45:16.583Z,65
2016-04-15T07:46:16.867Z,70
2016-04-15T07:47:16.525Z,80
2016-04-15T07:48:16.513Z,90
2016-04-15T07:49:16.500Z,65
2016-04-15T07:50:16.455Z,55
2016-04-15T07:51:16.443Z,60
2016-04-15T07:52:16.460Z,70
2016-04-15T07:53:16.385Z,110
2016-04-15T07:54:16.373Z,170
2016-04-15T07:55:16.343Z,340
2016-04-15T07:56:16.332Z,380
2016-04-15T07:57:16.302Z,265
2016-04-15T07:58:16.274Z,255
2016-04-15T07:59:16.261Z,280
2016-04-15T08:00:16.232Z,295
2016-04-15T08:01:16.329Z,235
2016-04-15T08:02:16.190Z,195
2016-04-15T08:03:16.178Z,250
2016-04-15T08:04:16.150Z,325
2016-04-15T08:05:16.121Z,235
2016-04-15T08:06:16.109Z,210
2016-04-15T08:07:16.112Z,190
2016-04-15T08:08:16.067Z,200
2016-04-15T08:09:15.867Z,190
2016-04-15T08:10:16.041Z,170
2016-04-15T08:11:16.012Z,155
2016-04-15T08:12:15.968Z,140
2016-04-15T08:13:15.970Z,130
2016-04-15T08:14:15.927Z,115
2016-04-15T08:15:15.913Z,135
2016-04-15T08:16:16.323Z,200
2016-04-15T08:17:15.856Z,265
2016-04-15T08:18:15.844Z,285
2016-04-15T08:19:15.831Z,295
2016-04-15T08:20:15.802Z,345
2016-04-15T08:21:15.779Z,430
2016-04-15T08:22:15.782Z,435
2016-04-15T08:23:15.738Z,370
2016-04-15T08:24:15.709Z,460
2016-04-15T08:25:15.680Z,400
2016-04-15T08:26:15.699Z,280
2016-04-15T08:27:15.702Z,275
2016-04-15T08:28:15.657Z,370
2016-04-15T08:29:15.614Z,305
2016-04-15T08:30:15.600Z,230
2016-04-15T08:31:15.765Z,235
2016-04-15T08:32:15.606Z,235
2016-04-15T08:33:15.620Z,155
2016-04-15T08:34:15.650Z,150
2016-04-15T08:35:15.664Z,125
2016-04-15T08:36:15.691Z,170
2016-04-15T08:37:15.677Z,130
2016-04-15T08:38:15.680Z,125
2016-04-15T08:39:15.682Z,80
2016-04-15T08:40:15.685Z,120
2016-04-15T08:41:15.670Z,95
2016-04-15T08:42:15.647Z,155
2016-04-15T08:43:15.624Z,210
2016-04-15T08:44:15.617Z,235
2016-04-15T08:45:15.610Z,305
2016-04-15T08:46:15.679Z,320
2016-04-15T08:47:15.559Z,285
2016-04-15T08:48:15.579Z,185
2016-04-15T08:49:15.521Z,225
2016-04-15T08:50:15.525Z,245
2016-04-15T08:51:15.499Z,250
2016-04-15T08:52:15.487Z,275
2016-04-15T08:53:15.459Z,275
2016-04-15T08:54:15.447Z,290
2016-04-15T08:55:15.419Z,330
2016-04-15T08:56:15.391Z,415
2016-04-15T08:57:15.378Z,455
2016-04-15T08:58:15.350Z,430
2016-04-15T08:59:15.323Z,380
2016-04-15T09:00:15.309Z,365
2016-04-15T09:01:15.297Z,445
2016-04-15T09:02:15.268Z,485
2016-04-15T09:03:15.271Z,470
2016-04-15T09:04:15.227Z,370
2016-04-15T09:05:15.215Z,500
2016-04-15T09:06:15.186Z,485
2016-04-15T09:07:15.173Z,480
2016-04-15T09:08:15.144Z,590
2016-04-15T09:09:15.147Z,485
2016-04-15T09:10:15.118Z,475
2016-04-15T09:11:15.089Z,510
2016-04-15T09:12:15.092Z,410
2016-04-15T09:13:15.063Z,330
2016-04-15T09:14:15.035Z,385
2016-04-15T09:15:15.022Z,515
2016-04-15T09:16:14.994Z,420
2016-04-15T09:17:15.012Z,435
2016-04-15T09:18:14.952Z,495
2016-04-15T09:19:14.939Z,440
2016-04-15T09:20:14.910Z,570
2016-04-15T09:21:14.913Z,490
2016-04-15T09:22:14.885Z,375
2016-04-15T09:23:14.857Z,310
2016-04-15T09:24:14.827Z,280
2016-04-15T09:25:14.816Z,190
2016-04-15T09:26:14.646Z,165
2016-04-15T09:27:14.618Z,185
2016-04-15T09:28:14.776Z,140
2016-04-15T09:29:14.748Z,190
2016-04-15T09:30:14.735Z,210
2016-04-15T09:31:14.737Z,170
2016-04-15T09:32:14.677Z,235
2016-04-15T09:33:14.648Z,265
2016-04-15T09:34:14.667Z,235
2016-04-15T09:35:14.639Z,370
2016-04-15T09:36:14.610Z,250
2016-04-15T09:37:14.582Z,205
2016-04-15T09:38:14.584Z,235
2016-04-15T09:39:14.540Z,235
2016-04-15T09:40:14.542Z,320
2016-04-15T09:41:14.498Z,260
2016-04-15T09:42:14.501Z,225
2016-04-15T09:43:14.472Z,135
2016-04-15T09:44:14.444Z,100
2016-04-15T09:45:14.446Z,75
2016-04-15T09:46:14.433Z,95
2016-04-15T09:47:14.374Z,95
2016-04-15T09:48:14.361Z,135
2016-04-15T09:49:14.348Z,230
2016-04-15T09:50:14.319Z,160
2016-04-15T09:51:14.307Z,165
2016-04-15T09:52:14.277Z,340
2016-04-15T09:53:14.280Z,505
2016-04-15T09:54:14.252Z,460
2016-04-15T09:55:14.239Z,450
2016-04-15T09:56:14.211Z,460
2016-04-15T09:57:14.183Z,390
2016-04-15T09:58:14.154Z,320
2016-04-15T09:59:14.141Z,355
2016-04-15T10:00:14.143Z,255
2016-04-15T10:01:14.099Z,265
2016-04-15T10:02:14.086Z,235
2016-04-15T10:03:14.057Z,260
2016-04-15T10:04:14.045Z,250
2016-04-15T10:05:14.031Z,360
2016-04-15T10:06:13.987Z,255
2016-04-15T10:07:13.975Z,305
2016-04-15T10:08:13.962Z,290
2016-04-15T10:09:13.934Z,300
2016-04-15T10:10:13.904Z,285
2016-04-15T10:11:13.892Z,310
2016-04-15T10:12:13.863Z,290
2016-04-15T10:13:13.850Z,260
2016-04-15T10:14:13.853Z,240
2016-04-15T10:15:13.839Z,235
2016-04-15T10:16:13.811Z,285
2016-04-15T10:17:13.782Z,290
2016-04-15T10:18:13.738Z,305
2016-04-15T10:19:13.741Z,370
2016-04-15T10:20:13.728Z,420
2016-04-15T10:21:13.684Z,435
2016-04-15T10:22:13.671Z,355
2016-04-15T10:23:13.643Z,420
2016-04-15T10:24:13.613Z,435
2016-04-15T10:25:13.601Z,350
2016-04-15T10:26:13.604Z,415
2016-04-15T10:27:13.560Z,420
2016-04-15T10:28:13.547Z,385
2016-04-15T10:29:13.535Z,410
2016-04-15T10:30:13.505Z,370
2016-04-15T10:31:13.477Z,395
2016-04-15T10:32:13.463Z,420
2016-04-15T10:33:13.466Z,385
2016-04-15T10:34:13.437Z,375
2016-04-15T10:35:13.393Z,325
2016-04-15T10:36:13.381Z,335
2016-04-15T10:37:13.367Z,270
2016-04-15T10:38:13.652Z,270
2016-04-15T10:39:13.326Z,235
2016-04-15T10:40:13.282Z,205
2016-04-15T10:41:13.284Z,190
2016-04-15T10:42:13.256Z,165
2016-04-15T10:43:13.243Z,190
2016-04-15T10:44:13.230Z,220
2016-04-15T10:45:13.202Z,225
2016-04-15T10:46:13.188Z,220
2016-04-15T10:47:13.253Z,205
2016-04-15T10:48:13.131Z,185
2016-04-15T10:49:13.133Z,160
2016-04-15T10:50:13.106Z,140
2016-04-15T10:51:13.077Z,145
2016-04-15T10:52:13.049Z,155
2016-04-15T10:53:13.035Z,150
2016-04-15T10:54:13.022Z,130
2016-04-15T10:55:12.994Z,155
2016-04-15T10:56:12.982Z,140
2016-04-15T10:57:12.969Z,145
2016-04-15T10:58:12.956Z,170
2016-04-15T10:59:12.927Z,190
2016-04-15T11:00:12.899Z,225
2016-04-15T11:01:12.855Z,230
2016-04-15T11:02:12.998Z,250
2016-04-15T11:03:12.844Z,265
2016-04-15T11:04:12.815Z,285
2016-04-15T11:05:12.787Z,260
2016-04-15T11:06:12.789Z,245
2016-04-15T11:07:12.776Z,250
2016-04-15T11:08:12.717Z,240
2016-04-15T11:09:12.688Z,215
2016-04-15T11:10:12.676Z,210
2016-04-15T11:11:12.662Z,230
2016-04-15T11:12:12.650Z,270
2016-04-15T11:13:12.621Z,295
2016-04-15T11:14:12.592Z,340
2016-04-15T11:15:12.564Z,395
2016-04-15T11:16:12.410Z,390
2016-04-15T11:17:12.756Z,395
2016-04-15T11:18:12.524Z,395
2016-04-15T11:19:12.480Z,385
2016-04-15T11:20:12.296Z,385
2016-04-15T11:21:12.455Z,385
2016-04-15T11:22:12.427Z,370
2016-04-15T11:23:12.397Z,430
2016-04-15T11:24:12.369Z,460
2016-04-15T11:25:12.355Z,485
2016-04-15T11:26:12.343Z,480
2016-04-15T11:27:12.315Z,480
2016-04-15T11:28:12.302Z,420
2016-04-15T11:29:12.274Z,445
2016-04-15T11:30:12.261Z,465
2016-04-15T11:31:12.232Z,490
2016-04-15T11:32:12.266Z,505
2016-04-15T11:33:12.190Z,495
2016-04-15T11:34:12.005Z,490
2016-04-15T11:35:12.977Z,525
2016-04-15T11:36:12.135Z,475
2016-04-15T11:37:12.107Z,390
2016-04-15T11:38:12.094Z,530
2016-04-15T11:39:12.066Z,565
2016-04-15T11:40:12.053Z,515
2016-04-15T11:41:11.884Z,480
2016-04-15T11:42:12.011Z,440
2016-04-15T11:43:11.998Z,415
2016-04-15T11:44:11.970Z,460
2016-04-15T11:45:11.956Z,455
2016-04-15T11:46:11.959Z,410
2016-04-15T11:47:12.009Z,330
2016-04-15T11:48:11.902Z,200
2016-04-15T11:49:11.889Z,195
2016-04-15T11:50:13.595Z,120
2016-04-15T11:51:11.832Z,230
2016-04-15T11:52:11.835Z,280
2016-04-15T11:53:11.822Z,215
2016-04-15T11:54:11.793Z,125
2016-04-15T11:55:11.890Z,110
2016-04-15T11:56:11.768Z,115
2016-04-15T11:57:11.708Z,130
2016-04-15T11:58:11.711Z,155
2016-04-15T11:59:11.682Z,230
2016-04-15T12:00:12.544Z,250
2016-04-15T12:01:11.656Z,305
2016-04-15T12:02:11.971Z,430
2016-04-15T12:03:11.598Z,430
2016-04-15T12:04:11.601Z,400
2016-04-15T12:05:11.776Z,380
2016-04-15T12:06:11.560Z,370
2016-04-15T12:07:11.531Z,310
2016-04-15T12:08:11.504Z,245
2016-04-15T12:09:11.178Z,225
2016-04-15T12:10:12.542Z,240
2016-04-15T12:11:11.451Z,265
2016-04-15T12:12:11.438Z,260
2016-04-15T12:13:11.191Z,285
2016-04-15T12:14:11.380Z,320
2016-04-15T12:15:13.414Z,350
2016-04-15T12:16:11.260Z,365
2016-04-15T12:17:11.311Z,315
2016-04-15T12:18:11.313Z,295
2016-04-15T12:19:11.300Z,340
2016-04-15T12:20:11.272Z,280
2016-04-15T12:21:11.102Z,245
2016-04-15T12:22:11.293Z,210
2016-04-15T12:23:11.217Z,170
2016-04-15T12:24:11.204Z,240
2016-04-15T12:25:11.176Z,245
2016-04-15T12:26:11.156Z,335
2016-04-15T12:27:11.315Z,350
2016-04-15T12:28:11.115Z,315
2016-04-15T12:29:11.087Z,265
2016-04-15T12:30:11.074Z,260
2016-04-15T12:31:11.076Z,210
2016-04-15T12:32:10.954Z,165
2016-04-15T12:33:11.035Z,135
2016-04-15T12:34:11.006Z,100
2016-04-15T12:35:11.041Z,135
2016-04-15T12:36:10.965Z,125
2016-04-15T12:37:10.922Z,100
2016-04-15T12:38:10.752Z,90
2016-04-15T12:39:10.895Z,95
2016-04-15T12:40:10.866Z,95
2016-04-15T12:41:10.853Z,130
2016-04-15T12:42:10.825Z,160
2016-04-15T12:43:10.812Z,245
2016-04-15T12:44:10.799Z,330
2016-04-15T12:45:10.785Z,340
2016-04-15T12:46:10.742Z,335
2016-04-15T12:47:10.635Z,340
2016-04-15T12:48:10.701Z,360
2016-04-15T12:49:10.704Z,395
2016-04-15T12:50:10.659Z,395
2016-04-15T12:51:10.646Z,410
2016-04-15T12:52:10.632Z,400
2016-04-15T12:53:10.604Z,370
2016-04-15T12:54:10.591Z,320
2016-04-15T12:55:10.547Z,290
2016-04-15T12:56:10.550Z,290
2016-04-15T12:57:10.521Z,305
2016-04-15T12:58:10.509Z,315
2016-04-15T12:59:10.480Z,310
2016-04-15T13:00:10.467Z,295
2016-04-15T13:01:10.438Z,265
2016-04-15T13:02:10.425Z,205
2016-04-15T13:03:10.412Z,150
2016-04-15T13:04:10.384Z,120
2016-04-15T13:05:10.356Z,120
2016-04-15T13:06:10.343Z,105
2016-04-15T13:07:10.314Z,135
2016-04-15T13:08:10.301Z,140
2016-04-15T13:09:10.288Z,150
2016-04-15T13:10:10.260Z,185
2016-04-15T13:11:10.246Z,240
2016-04-15T13:12:10.218Z,300
2016-04-15T13:13:10.205Z,380
2016-04-15T13:14:10.177Z,375
2016-04-15T13:15:10.149Z,325
2016-04-15T13:16:09.979Z,305
2016-04-15T13:17:10.138Z,280
2016-04-15T13:18:10.099Z,260
2016-04-15T13:19:10.070Z,260
2016-04-15T13:20:09.916Z,280
2016-04-15T13:21:10.043Z,290
2016-04-15T13:22:10.031Z,290
2016-04-15T13:23:09.987Z,310
2016-04-15T13:24:09.990Z,335
2016-04-15T13:25:09.945Z,330
2016-04-15T13:26:09.948Z,310
2016-04-15T13:27:09.904Z,320
2016-04-15T13:28:09.891Z,325
2016-04-15T13:29:09.878Z,330
2016-04-15T13:30:09.864Z,310
2016-04-15T13:31:09.836Z,295
2016-04-15T13:32:09.808Z,275
2016-04-15T13:33:09.795Z,235
2016-04-15T13:34:09.767Z,195
2016-04-15T13:35:09.738Z,195
2016-04-15T13:36:09.725Z,180
2016-04-15T13:37:09.712Z,180
2016-04-15T13:38:09.699Z,175
2016-04-15T13:39:09.671Z,175
2016-04-15T13:40:09.641Z,150
2016-04-15T13:41:09.629Z,115
2016-04-15T13:42:09.615Z,90
2016-04-15T13:43:09.602Z,75
2016-04-15T13:44:09.574Z,85
2016-04-15T13:45:09.546Z,95
2016-04-15T13:46:09.518Z,130
2016-04-15T13:47:09.521Z,150
2016-04-15T13:48:09.491Z,125
2016-04-15T13:49:09.463Z,115
2016-04-15T13:50:09.450Z,85
2016-04-15T13:51:09.422Z,75
2016-04-15T13:52:09.409Z,65
2016-04-15T13:53:09.380Z,75
2016-04-15T13:54:09.367Z,70
2016-04-15T13:55:09.339Z,75
2016-04-15T13:56:09.310Z,85
2016-04-15T13:57:09.297Z,95
2016-04-15T13:58:09.284Z,80
2016-04-15T13:59:09.255Z,60
2016-04-15T14:00:09.242Z,70
2016-04-15T14:01:09.198Z,85
2016-04-15T14:02:09.186Z,100
2016-04-15T14:03:09.157Z,90
2016-04-15T14:04:09.159Z,80
2016-04-15T14:05:09.131Z,65
2016-04-15T14:06:09.102Z,65
2016-04-15T14:07:09.089Z,90
2016-04-15T14:08:09.077Z,110
2016-04-15T14:09:09.032Z,130
2016-04-15T14:10:09.019Z,170
2016-04-15T14:11:09.021Z,245
2016-04-15T14:12:08.963Z,260
2016-04-15T14:13:08.949Z,280
2016-04-15T14:14:08.921Z,275